Etusivu
METAR-TAF:

METAR-TAF

Lentoasemat :

Antananarivo, Madagaskar

Leveyspiiri: 18-48S, Pituuspiiri: 047-29E, korkeus merenpinnasta: 1279 m

Tämänhetkinen sää

Tämä raportti tehtiin 21 minuuttia sitten, kello 16.00 UTC
Tuuli 5 kn idästä
Lämpötila 19°C
Kosteus 68%
Ilmanpaine 1021 hPa
Näkyvyys 10 km tai enemmän
Muutamia pilviä 1700 ft:n korkeudessa
Hajanaisia pilviä 2000 ft:n korkeudessa

METAR: FMMI 191600Z 08005KT 9999 FEW017 SCT020 19/13 Q1021 NOSIG

Aika: 19:21 (16:21 UTC)

Sääennuste

Tämä raportti tehtiin 5 tuntia ja 21 minuuttia sitten, kello 11.00 UTC
Ennuste voimassa 19. päivästä klo 12 UTC - 20. päivään klo 18 UTC
Tuuli 5 kn idästä
Näkyvyys 10 km tai enemmän
Hajanaisia pilviä 2000 ft:n korkeudessa
Todennäköisyys 40%
20. päivästä klo 00 UTC - 20. päivään klo 06 UTC
Näkyvyys: 0400 m
Hajonneita pilviä 400 ft:n korkeudessa
sumua

TAF: FMMI 191100Z 1912/2018 08005KT 9999 SCT020 PROB40 2000/2006 0400 FG BKN004

Säähavainnot ja -ennusteet yli 4000 lentoasemalta (METAR- ja TAF-raportit).

Käytössä olevat sääasemat on merkitty karttaan keltaisilla ja punaisilla pisteillä.

Aseta hiiri pisteen päälle nähdäksesi sääaseman nimen.

Klikkaa sitten nähdäksesi säähavainnot ja -ennusteet.

Kartan vaihtaminen: klikkaa mustalla rastilla varustettuja vihreitä pisteitä, niin voit zoomata sisään; viivalla varustettua vihreää pistettä, niin voit zoomata ulos tai vihreitä nuolia, niin pääset viereisille kartoille.


METAR-TAF: